Time;durP1;ratioP1;P1;durP2;ratioP2;P2;SDS_P1;SDS_P2;PMS_P1;PMS_P2;Temp;Humidity;BMP_temperature;BMP_pressure;BME280_temperature;BME280_humidity;BME280_pressure;Samples;Min_cycle;Max_cycle;Signal;HPM_P1;HPM_P2
2021/04/09 00:02:00;694457.00;2.31;1197.63;112521.00;0.38;195.18;;;;;10.80;1.00;;;;;;2260463;61;1716;-85
2021/04/09 00:04:28;466174.00;1.55;803.61;87267.00;0.29;151.59;;;;;10.40;1.00;;;;;;2256472;61;1249;-85
2021/04/09 00:06:54;719746.00;2.40;1241.50;93119.00;0.31;161.69;;;;;10.20;1.00;;;;;;2260242;61;1566;-84
2021/04/09 00:09:21;636090.00;2.12;1096.58;90944.00;0.30;157.94;;;;;9.90;1.00;;;;;;2260529;61;1109;-85
2021/04/09 00:11:48;846060.00;2.82;1461.57;90834.00;0.30;157.75;;;;;9.80;1.00;;;;;;2260069;61;1090;-84
2021/04/09 00:14:16;780147.00;2.60;1346.52;93956.00;0.31;163.14;;;;;10.10;1.00;;;;;;2259965;61;1181;-84
2021/04/09 00:16:43;832337.00;2.77;1437.58;73172.00;0.24;127.24;;;;;10.50;1.00;;;;;;2259565;61;1220;-84
2021/04/09 00:19:13;719633.00;2.40;1241.30;87389.00;0.29;151.80;;;;;10.70;1.00;;;;;;2259918;61;2087;-84
2021/04/09 00:21:41;647147.00;2.16;1115.70;78755.00;0.26;136.89;;;;;10.50;1.00;;;;;;2260706;61;1108;-85
2021/04/09 00:24:08;680883.00;2.27;1174.10;94247.00;0.31;163.64;;;;;10.30;1.00;;;;;;2260510;61;1278;-85
2021/04/09 00:26:36;894518.00;2.98;1546.49;59454.00;0.20;103.53;;;;;9.90;1.00;;;;;;2260880;61;1148;-85
2021/04/09 00:29:03;611792.00;2.04;1054.59;77235.00;0.26;134.26;;;;;9.80;1.00;;;;;;2262133;61;1110;-85
2021/04/09 00:31:29;586213.00;1.95;1010.42;90392.00;0.30;156.98;;;;;9.90;1.00;;;;;;2256601;61;1218;-85
2021/04/09 00:33:56;825811.00;2.75;1426.18;84955.00;0.28;147.60;;;;;9.70;1.00;;;;;;2257015;61;1343;-85
2021/04/09 00:36:34;673682.00;2.25;1161.63;89155.00;0.30;154.85;;;;;9.40;1.00;;;;;;2257178;61;1187;-85
2021/04/09 00:39:02;593433.00;1.98;1022.88;4992.00;0.02;9.27;;;;;9.00;1.00;;;;;;2249455;61;2030;-85
2021/04/09 00:41:28;536069.00;1.79;923.95;0.00;0.00;0.62;;;;;8.70;1.00;;;;;;2245201;61;1297;-85
2021/04/09 00:43:56;588081.00;1.96;1013.64;17370.00;0.06;30.72;;;;;8.70;1.00;;;;;;2244491;61;1406;-86
2021/04/09 00:46:22;657022.00;2.19;1132.79;42940.00;0.14;74.97;;;;;8.70;1.00;;;;;;2245078;61;1173;-86
2021/04/09 00:48:49;559808.00;1.87;964.87;0.00;0.00;0.62;;;;;8.70;1.00;;;;;;2248194;61;1145;-86
2021/04/09 00:51:16;370460.00;1.23;639.03;0.00;0.00;0.62;;;;;8.50;1.00;;;;;;2255611;61;1061;-87
2021/04/09 00:53:44;715431.00;2.38;1234.01;81010.00;0.27;140.78;;;;;8.60;1.00;;;;;;2250730;61;1255;-86
2021/04/09 00:56:17;565838.00;1.89;975.27;0.00;0.00;0.62;;;;;8.70;1.00;;;;;;2243856;61;1101;-85
2021/04/09 00:58:45;461718.00;1.54;795.94;0.00;0.00;0.62;;;;;9.20;1.00;;;;;;2250781;61;2010;-85
2021/04/09 01:01:12;118417424.00;394.72;67264424.00;0.00;0.00;0.62;;;;;9.10;1.00;;;;;;2251568;61;1255;-86
2021/04/09 01:03:39;487303.00;1.62;839.97;0.00;0.00;0.62;;;;;8.90;1.00;;;;;;2243884;62;1303;-85
2021/04/09 01:06:07;591602.00;1.97;1019.72;0.00;0.00;0.62;;;;;8.70;1.00;;;;;;2243073;62;1080;-86
2021/04/09 01:08:35;469117.00;1.56;808.67;0.00;0.00;0.62;;;;;8.30;1.00;;;;;;2242675;62;1185;-85
2021/04/09 01:11:03;472044.00;1.57;813.71;0.00;0.00;0.62;;;;;8.40;1.00;;;;;;2243036;61;1361;-86
2021/04/09 01:13:30;422737.00;1.41;728.90;0.00;0.00;0.62;;;;;8.50;1.00;;;;;;2239816;61;1299;-85
2021/04/09 01:15:58;553649.00;1.85;954.25;16354.00;0.05;28.96;;;;;9.40;1.00;;;;;;2250080;61;1118;-86
2021/04/09 01:18:31;405489.00;1.35;699.24;0.00;0.00;0.62;;;;;9.60;1.00;;;;;;2249772;61;2013;-85
2021/04/09 01:21:07;382432.00;1.27;659.61;0.00;0.00;0.62;;;;;9.50;1.00;;;;;;2251211;61;1169;-86
2021/04/09 01:23:54;438284.00;1.46;755.63;0.00;0.00;0.62;;;;;9.90;1.00;;;;;;2257805;61;1294;-86
2021/04/09 01:26:53;352009.00;1.17;607.31;0.00;0.00;0.62;;;;;10.60;1.00;;;;;;2252697;61;1160;-85
2021/04/09 01:30:09;252497.00;0.84;436.25;0.00;0.00;0.62;;;;;10.70;1.00;;;;;;2253661;61;1156;-85
2021/04/09 01:32:39;393937.00;1.31;679.38;0.00;0.00;0.62;;;;;10.80;1.00;;;;;;2260530;61;1314;-86
2021/04/09 01:35:08;432802.00;1.44;746.20;0.00;0.00;0.62;;;;;10.20;1.00;;;;;;2260915;61;1457;-85
2021/04/09 01:37:39;504541.00;1.68;869.64;0.00;0.00;0.62;;;;;9.70;1.00;;;;;;2261088;61;1165;-85
2021/04/09 01:40:12;714398.00;2.38;1232.22;0.00;0.00;0.62;;;;;9.10;1.00;;;;;;2260638;61;1947;-87
2021/04/09 01:42:42;609559.00;2.03;1050.73;0.00;0.00;0.62;;;;;8.70;1.00;;;;;;2260834;61;1766;-86
2021/04/09 01:45:12;547534.00;1.83;943.71;0.00;0.00;0.62;;;;;8.10;1.00;;;;;;2261996;61;1181;-85
2021/04/09 01:47:43;585394.00;1.95;1009.01;0.00;0.00;0.62;;;;;8.30;1.00;;;;;;2261727;61;1205;-86
2021/04/09 01:50:13;590070.00;1.97;1017.08;0.00;0.00;0.62;;;;;8.80;1.00;;;;;;2262349;61;1280;-86
2021/04/09 01:52:42;597453.00;1.99;1029.82;0.00;0.00;0.62;;;;;9.70;1.00;;;;;;2262298;61;1415;-85
2021/04/09 01:55:11;449088.00;1.50;774.21;0.00;0.00;0.62;;;;;10.20;1.00;;;;;;2263332;61;1722;-85
2021/04/09 01:57:40;489494.00;1.63;843.74;0.00;0.00;0.62;;;;;10.70;1.00;;;;;;2262625;61;1189;-85
2021/04/09 02:00:14;599014.00;2.00;1032.52;0.00;0.00;0.62;;;;;10.90;1.00;;;;;;2262169;61;1939;-86
2021/04/09 02:02:44;284727.00;0.95;491.66;0.00;0.00;0.62;;;;;10.90;1.00;;;;;;2262382;61;1274;-85
2021/04/09 02:05:15;328879.00;1.10;567.56;0.00;0.00;0.62;;;;;11.10;1.00;;;;;;2258353;61;1085;-86
2021/04/09 02:15:59;240280.00;0.80;415.23;0.00;0.00;0.62;;;;;10.50;1.00;;;;;;2260010;61;1423;-85
2021/04/09 02:18:27;207214.00;0.69;358.34;0.00;0.00;0.62;;;;;10.30;1.00;;;;;;2258408;61;1987;-87
2021/04/09 02:20:53;252628.00;0.84;436.47;0.00;0.00;0.62;;;;;10.70;1.00;;;;;;2249481;61;1233;-86
2021/04/09 02:23:20;236392.00;0.79;408.54;0.00;0.00;0.62;;;;;10.90;1.00;;;;;;2249591;61;1307;-87
2021/04/09 02:25:47;192208.00;0.64;332.51;0.00;0.00;0.62;;;;;11.20;1.00;;;;;;2249681;61;1267;-87
2021/04/09 02:28:15;219639.00;0.73;379.72;0.00;0.00;0.62;;;;;11.50;1.00;;;;;;2250472;61;1177;-86
2021/04/09 02:30:41;293025.00;0.98;505.93;0.00;0.00;0.62;;;;;11.30;1.00;;;;;;2249455;61;1131;-86
2021/04/09 02:33:08;151312.00;0.50;262.07;0.00;0.00;0.62;;;;;11.00;1.00;;;;;;2249037;61;1283;-85
2021/04/09 02:35:35;276636.00;0.92;477.75;0.00;0.00;0.62;;;;;10.40;1.00;;;;;;2249079;61;1145;-86
2021/04/09 02:38:02;241293.00;0.80;416.98;0.00;0.00;0.62;;;;;10.00;1.00;;;;;;2250570;61;1229;-86
2021/04/09 02:40:35;282814.00;0.94;488.38;0.00;0.00;0.62;;;;;9.90;1.00;;;;;;2258279;61;2022;-86
2021/04/09 02:43:02;355647.00;1.19;613.57;0.00;0.00;0.62;;;;;9.60;1.00;;;;;;2258174;61;1343;-86
2021/04/09 02:45:29;269000.00;0.90;464.62;0.00;0.00;0.62;;;;;9.60;1.00;;;;;;2251121;61;1245;-85
2021/04/09 02:48:00;304587.00;1.02;525.80;0.00;0.00;0.62;;;;;9.50;1.00;;;;;;2258539;61;1243;-87
2021/04/09 02:50:32;329385.00;1.10;568.43;0.00;0.00;0.62;;;;;9.00;1.00;;;;;;2257945;61;1145;-86
2021/04/09 02:53:04;293470.00;0.98;506.69;0.00;0.00;0.62;;;;;9.40;1.00;;;;;;2258304;61;1463;-86
2021/04/09 02:55:34;230772.00;0.77;398.88;0.00;0.00;0.62;;;;;9.20;1.00;;;;;;2259449;61;1197;-87
2021/04/09 02:58:04;280645.00;0.94;484.65;0.00;0.00;0.62;;;;;9.20;1.00;;;;;;2258492;61;1114;-87
2021/04/09 03:00:31;326655.00;1.09;563.74;0.00;0.00;0.62;;;;;9.50;1.00;;;;;;2259488;61;1999;-87
2021/04/09 03:03:00;253326.00;0.84;437.67;0.00;0.00;0.62;;;;;9.60;1.00;;;;;;2259392;61;1845;-86
2021/04/09 03:05:27;317581.00;1.06;548.14;0.00;0.00;0.62;;;;;9.60;1.00;;;;;;2259891;61;1201;-86
2021/04/09 03:07:55;221185.00;0.74;382.38;0.00;0.00;0.62;;;;;9.40;1.00;;;;;;2251855;61;1157;-86
2021/04/09 03:10:24;219441.00;0.73;379.38;0.00;0.00;0.62;;;;;8.80;1.00;;;;;;2258901;61;1205;-85
2021/04/09 03:12:51;312448.00;1.04;539.32;0.00;0.00;0.62;;;;;8.00;1.00;;;;;;2259904;61;1281;-86
2021/04/09 03:15:21;264398.00;0.88;456.71;0.00;0.00;0.62;;;;;7.10;1.00;;;;;;2259974;61;1682;-85
2021/04/09 03:17:55;265758.00;0.89;459.05;0.00;0.00;0.62;;;;;6.70;1.00;;;;;;2259542;61;1057;-87
2021/04/09 03:20:23;344170.00;1.15;593.84;0.00;0.00;0.62;;;;;6.90;1.00;;;;;;2259897;61;1993;-87
2021/04/09 03:22:49;378999.00;1.26;653.70;0.00;0.00;0.62;;;;;7.10;1.00;;;;;;2259689;61;1261;-85
2021/04/09 03:25:17;410381.00;1.37;707.65;20757.00;0.07;36.58;;;;;7.60;1.00;;;;;;2259407;61;1807;-86
2021/04/09 03:27:44;384791.00;1.28;663.66;0.00;0.00;0.62;;;;;8.30;1.00;;;;;;2259077;61;913;-87
2021/04/09 03:30:12;297757.00;0.99;514.06;0.00;0.00;0.62;;;;;9.40;1.00;;;;;;2259406;61;1605;-87
2021/04/09 03:32:39;245352.00;0.82;423.96;0.00;0.00;0.62;;;;;10.00;1.00;;;;;;2259063;61;1423;-87
2021/04/09 03:35:07;193308.00;0.64;334.40;0.00;0.00;0.62;;;;;10.40;1.00;;;;;;2259520;61;1168;-85
2021/04/09 03:37:34;271619.00;0.91;469.13;0.00;0.00;0.62;;;;;10.70;1.00;;;;;;2259355;61;1204;-86
2021/04/09 03:40:01;219387.00;0.73;379.29;0.00;0.00;0.62;;;;;11.00;1.00;;;;;;2259201;61;1939;-86
2021/04/09 03:42:27;380748.00;1.27;656.71;7665.00;0.03;13.90;;;;;10.80;1.00;;;;;;2258808;61;1351;-85
2021/04/09 03:44:55;352617.00;1.18;608.36;0.00;0.00;0.62;;;;;11.00;1.00;;;;;;2257875;61;1133;-86
2021/04/09 03:47:21;225876.00;0.75;390.45;0.00;0.00;0.62;;;;;10.60;1.00;;;;;;2258780;61;1129;-86
2021/04/09 03:49:48;349232.00;1.16;602.54;0.00;0.00;0.62;;;;;9.90;1.00;;;;;;2259086;61;1173;-86
2021/04/09 03:52:14;677144.00;2.26;1167.63;59347.00;0.20;103.35;;;;;9.20;1.00;;;;;;2257960;61;1401;-86
2021/04/09 03:54:41;282087.00;0.94;487.13;0.00;0.00;0.62;;;;;9.00;1.00;;;;;;2251199;61;1181;-86
2021/04/09 03:57:07;273886.00;0.91;473.03;0.00;0.00;0.62;;;;;8.10;1.00;;;;;;2258536;61;1150;-86
2021/04/09 03:59:34;496555.00;1.66;855.89;13701.00;0.05;24.36;;;;;7.70;1.00;;;;;;2258719;61;1920;-86
2021/04/09 04:02:02;381458.00;1.27;657.93;0.00;0.00;0.62;;;;;7.30;1.00;;;;;;2258548;61;1737;-87
2021/04/09 04:04:28;336721.00;1.12;581.04;0.00;0.00;0.62;;;;;7.10;1.00;;;;;;2261680;61;1244;-87
2021/04/09 04:06:56;340105.00;1.13;586.85;0.00;0.00;0.62;;;;;7.10;1.00;;;;;;2258134;61;1577;-87
2021/04/09 04:09:23;610527.00;2.04;1052.40;64456.00;0.21;112.18;;;;;6.90;1.00;;;;;;2257309;61;1213;-86
2021/04/09 04:11:49;302533.00;1.01;522.27;0.00;0.00;0.62;;;;;7.10;1.00;;;;;;2254494;61;1356;-86
2021/04/09 04:14:16;717824.00;2.39;1238.16;37325.00;0.12;65.26;;;;;7.90;1.00;;;;;;2254572;61;1633;-86
2021/04/09 04:16:43;449772.00;1.50;775.39;0.00;0.00;0.62;;;;;8.50;1.00;;;;;;2254912;61;1698;-86
2021/04/09 04:19:13;349520.00;1.17;603.04;0.00;0.00;0.62;;;;;8.60;1.00;;;;;;2254590;61;2011;-86
2021/04/09 04:21:39;272246.00;0.91;470.21;0.00;0.00;0.62;;;;;8.40;1.00;;;;;;2254508;61;1083;-86
2021/04/09 04:24:07;344674.00;1.15;594.71;0.00;0.00;0.62;;;;;9.00;1.00;;;;;;2254585;61;1347;-86
2021/04/09 04:26:33;117685016.00;392.28;66022948.00;0.00;0.00;0.62;;;;;9.40;1.00;;;;;;2255799;61;1095;-86
2021/04/09 04:29:00;286942.00;0.96;495.47;0.00;0.00;0.62;;;;;9.10;1.00;;;;;;2256059;61;1672;-86
2021/04/09 04:31:27;294542.00;0.98;508.54;29403.00;0.10;51.55;;;;;9.10;1.00;;;;;;2256313;61;1243;-86
2021/04/09 04:33:56;345801.00;1.15;596.64;0.00;0.00;0.62;;;;;8.90;1.00;;;;;;2256089;61;1786;-87
2021/04/09 04:36:24;337878.00;1.13;583.03;0.00;0.00;0.62;;;;;8.50;1.00;;;;;;2255638;61;1125;-86
2021/04/09 04:38:56;342590.00;1.14;591.13;0.00;0.00;0.62;;;;;8.50;1.00;;;;;;2254815;61;1990;-86
2021/04/09 04:41:23;381772.00;1.27;658.47;0.00;0.00;0.62;;;;;8.50;1.00;;;;;;2255405;61;1126;-86
2021/04/09 04:43:50;325620.00;1.09;561.96;12696.00;0.04;22.62;;;;;8.70;1.00;;;;;;2251031;61;1355;-87
2021/04/09 04:46:16;530913.00;1.77;915.06;49578.00;0.17;86.46;;;;;8.60;1.00;;;;;;2251182;61;1898;-85
2021/04/09 04:48:43;358489.00;1.19;618.45;0.00;0.00;0.62;;;;;8.60;1.00;;;;;;2250623;61;1125;-86
2021/04/09 04:51:10;381009.00;1.27;657.16;26503.00;0.09;46.53;;;;;8.60;1.00;;;;;;2250377;61;1161;-86
2021/04/09 04:53:37;206651.00;0.69;357.37;0.00;0.00;0.62;;;;;9.00;1.00;;;;;;2250135;61;1274;-85
2021/04/09 04:56:03;186629.00;0.62;322.90;0.00;0.00;0.62;;;;;9.10;1.00;;;;;;2250145;61;1134;-85
2021/04/09 04:58:30;311605.00;1.04;537.87;0.00;0.00;0.62;;;;;9.50;1.00;;;;;;2250389;61;1741;-85
2021/04/09 05:00:56;329673.00;1.10;568.92;0.00;0.00;0.62;;;;;9.40;1.00;;;;;;2249836;61;2021;-85
2021/04/09 05:03:23;666022.00;2.22;1148.37;131820.00;0.44;228.47;;;;;9.90;1.00;;;;;;2255272;61;1376;-86
2021/04/09 05:05:49;420062.00;1.40;724.30;0.00;0.00;0.62;;;;;9.10;1.00;;;;;;2254968;61;1248;-86
2021/04/09 05:08:16;290644.00;0.97;501.84;0.00;0.00;0.62;;;;;7.30;1.00;;;;;;2254554;61;1142;-87
2021/04/09 05:10:44;201954.00;0.67;349.29;0.00;0.00;0.62;;;;;7.20;1.00;;;;;;2255377;61;1311;-87
2021/04/09 05:13:11;334002.00;1.11;576.36;0.00;0.00;0.62;;;;;7.50;1.00;;;;;;2254432;61;1799;-86
2021/04/09 05:15:37;310498.00;1.03;535.97;0.00;0.00;0.62;;;;;7.30;1.00;;;;;;2257947;61;1731;-87
2021/04/09 05:18:08;635954.00;2.12;1096.34;0.00;0.00;0.62;;;;;6.80;1.00;;;;;;2251778;61;1179;-87
2021/04/09 05:20:34;309253.00;1.03;533.83;0.00;0.00;0.62;;;;;7.20;1.00;;;;;;2253696;61;1985;-87
2021/04/09 05:23:01;316123.00;1.05;545.63;0.00;0.00;0.62;;;;;7.80;1.00;;;;;;2251363;61;1318;-86
2021/04/09 05:25:28;247702.00;0.83;428.00;0.00;0.00;0.62;;;;;7.90;1.00;;;;;;2250390;61;1090;-86
2021/04/09 05:27:55;410834.00;1.37;708.43;0.00;0.00;0.62;;;;;8.40;1.00;;;;;;2249975;61;1153;-86
2021/04/09 05:30:22;224581.00;0.75;388.23;0.00;0.00;0.62;;;;;9.30;1.00;;;;;;2250139;61;1793;-86
2021/04/09 05:32:49;196000.00;0.65;339.04;0.00;0.00;0.62;;;;;10.20;1.00;;;;;;2249694;61;1364;-86
2021/04/09 05:35:16;264197.00;0.88;456.37;0.00;0.00;0.62;;;;;10.40;1.00;;;;;;2250688;61;1080;-87
2021/04/09 05:37:43;265542.00;0.89;458.68;0.00;0.00;0.62;;;;;11.60;1.00;;;;;;2260667;61;1149;-87
2021/04/09 05:40:10;180222.00;0.60;311.87;0.00;0.00;0.62;;;;;12.30;1.00;;;;;;2261138;61;1924;-87
2021/04/09 05:42:37;198874.00;0.66;343.99;0.00;0.00;0.62;;;;;12.40;1.00;;;;;;2258933;61;1348;-86
2021/04/09 05:45:06;197290.00;0.66;341.26;0.00;0.00;0.62;;;;;12.30;1.00;;;;;;2258282;61;1597;-86
2021/04/09 05:47:33;293070.00;0.98;506.01;0.00;0.00;0.62;;;;;11.30;1.00;;;;;;2258797;61;1242;-86
2021/04/09 05:49:59;182694.00;0.61;316.13;0.00;0.00;0.62;;;;;10.50;1.00;;;;;;2257282;61;1637;-85
2021/04/09 05:52:26;268600.00;0.90;463.94;0.00;0.00;0.62;;;;;11.10;1.00;;;;;;2256785;61;1348;-86
2021/04/09 05:54:52;285805.00;0.95;493.52;0.00;0.00;0.62;;;;;11.70;1.00;;;;;;2257875;61;1085;-85
2021/04/09 05:57:20;361926.00;1.21;624.36;38400.00;0.13;67.12;;;;;12.90;1.00;;;;;;2257667;61;1598;-86
2021/04/09 05:59:47;238082.00;0.79;411.45;0.00;0.00;0.62;;;;;13.00;1.00;;;;;;2257373;61;1986;-85
2021/04/09 06:02:15;224313.00;0.75;387.76;0.00;0.00;0.62;;;;;13.00;1.00;;;;;;2257494;61;1741;-86
2021/04/09 06:04:41;153918.00;0.51;266.56;0.00;0.00;0.62;;;;;13.20;1.00;;;;;;2257460;61;1165;-86
2021/04/09 06:07:07;295197.00;0.98;509.66;0.00;0.00;0.62;;;;;12.70;1.00;;;;;;2256633;61;1191;-85
2021/04/09 06:09:34;313343.00;1.04;540.86;0.00;0.00;0.62;;;;;12.20;1.00;;;;;;2256659;61;1168;-85
2021/04/09 06:12:00;241181.00;0.80;416.78;0.00;0.00;0.62;;;;;11.40;1.00;;;;;;2257281;61;1273;-84
2021/04/09 06:14:27;399719.00;1.33;689.32;0.00;0.00;0.62;;;;;10.90;1.00;;;;;;2256961;61;1200;-85
2021/04/09 06:16:53;202727.00;0.68;350.62;0.00;0.00;0.62;;;;;10.80;1.00;;;;;;2256748;61;1064;-85
2021/04/09 06:19:21;748433.00;2.49;1291.33;165094.00;0.55;285.82;;;;;10.50;1.00;;;;;;2257120;61;2019;-86
2021/04/09 06:21:47;188917.00;0.63;326.84;0.00;0.00;0.62;;;;;10.80;1.00;;;;;;2256872;61;1065;-86
2021/04/09 06:24:14;563325.00;1.88;970.93;36285.00;0.12;63.46;;;;;10.90;1.00;;;;;;2256720;61;1720;-86
2021/04/09 06:26:40;371810.00;1.24;641.35;0.00;0.00;0.62;;;;;11.00;1.00;;;;;;2256959;61;1208;-85
2021/04/09 06:29:06;325586.00;1.09;561.90;0.00;0.00;0.62;;;;;11.00;1.00;;;;;;2257819;61;1324;-86
2021/04/09 06:31:33;483386.00;1.61;833.22;88857.00;0.30;154.33;;;;;10.60;1.00;;;;;;2257135;61;1757;-85
2021/04/09 06:33:59;291553.00;0.97;503.40;0.00;0.00;0.62;;;;;10.50;1.00;;;;;;2256805;61;1451;-86
2021/04/09 06:36:27;454705.00;1.52;783.88;31251.00;0.10;54.75;;;;;10.90;1.00;;;;;;2256864;61;1283;-85
2021/04/09 06:38:53;457551.00;1.53;788.77;0.00;0.00;0.62;;;;;11.30;1.00;;;;;;2256278;61;1994;-85
2021/04/09 06:41:20;389935.00;1.30;672.50;0.00;0.00;0.62;;;;;11.60;1.00;;;;;;2256695;61;1186;-85
2021/04/09 06:43:47;545541.00;1.82;940.27;33505.00;0.11;58.65;;;;;12.00;1.00;;;;;;2256394;61;1254;-85
2021/04/09 06:46:15;304019.00;1.01;524.83;0.00;0.00;0.62;;;;;12.80;1.00;;;;;;2256052;61;1126;-85
2021/04/09 06:48:42;274130.00;0.91;473.45;0.00;0.00;0.62;;;;;13.00;1.00;;;;;;2256128;61;1123;-84
2021/04/09 06:51:11;266988.00;0.89;461.16;0.00;0.00;0.62;;;;;12.90;1.00;;;;;;2255436;61;1252;-84
2021/04/09 06:53:40;283332.00;0.94;489.27;0.00;0.00;0.62;;;;;12.70;1.00;;;;;;2255588;61;1733;-85
2021/04/09 06:56:08;282071.00;0.94;487.10;0.00;0.00;0.62;;;;;13.30;1.00;;;;;;2255677;61;1161;-84
2021/04/09 06:58:35;263075.00;0.88;454.44;0.00;0.00;0.62;;;;;13.70;1.00;;;;;;2256026;61;1180;-85
2021/04/09 07:01:03;451975.00;1.51;779.18;0.00;0.00;0.62;;;;;13.60;1.00;;;;;;2255550;61;2029;-84
2021/04/09 07:03:29;440155.00;1.47;758.85;0.00;0.00;0.62;;;;;13.40;1.00;;;;;;2255332;61;1275;-84
2021/04/09 07:05:55;230867.00;0.77;399.04;0.00;0.00;0.62;;;;;14.00;1.00;;;;;;2255944;61;1144;-85
2021/04/09 07:08:22;587747.00;1.96;1013.07;20717.00;0.07;36.51;;;;;14.50;1.00;;;;;;2254624;61;1172;-85
2021/04/09 07:10:52;144174.00;0.48;249.77;0.00;0.00;0.62;;;;;14.70;1.00;;;;;;2254680;61;1140;-85
2021/04/09 07:13:20;197990.00;0.66;342.46;0.00;0.00;0.62;;;;;15.10;1.00;;;;;;2255189;61;1366;-85
2021/04/09 07:15:47;325342.00;1.08;561.48;43789.00;0.15;76.44;;;;;15.50;1.00;;;;;;2254592;61;1082;-85
2021/04/09 07:18:15;144931.00;0.48;251.07;0.00;0.00;0.62;;;;;15.70;1.00;;;;;;2254531;61;1119;-84
2021/04/09 07:20:42;207212.00;0.69;358.34;0.00;0.00;0.62;;;;;15.70;1.00;;;;;;2255794;61;2002;-85
2021/04/09 07:23:12;170182.00;0.57;294.58;0.00;0.00;0.62;;;;;15.60;1.00;;;;;;2256445;61;1368;-85
2021/04/09 07:25:41;88409.00;0.29;153.56;0.00;0.00;0.62;;;;;15.70;1.00;;;;;;2256493;61;1171;-84
2021/04/09 07:28:15;456530.00;1.52;787.02;138998.00;0.46;240.84;;;;;16.00;1.00;;;;;;2255788;61;1065;-85
2021/04/09 07:30:49;149637.00;0.50;259.18;11903.00;0.04;21.25;;;;;16.30;1.00;;;;;;2255053;61;1168;-85
2021/04/09 07:33:20;86307.00;0.29;149.93;0.00;0.00;0.62;;;;;17.20;1.00;;;;;;2255171;61;1371;-85
2021/04/09 07:35:49;202766.00;0.68;350.68;0.00;0.00;0.62;;;;;17.70;1.00;;;;;;2255366;61;1128;-85
2021/04/09 07:38:21;335371.00;1.12;578.72;82017.00;0.27;142.52;;;;;17.70;1.00;;;;;;2255418;61;1054;-85
2021/04/09 07:40:57;127861.00;0.43;221.64;0.00;0.00;0.62;;;;;17.70;1.00;;;;;;2255013;61;1939;-85
2021/04/09 07:43:25;91805.00;0.31;159.42;0.00;0.00;0.62;;;;;17.40;1.00;;;;;;2255593;61;1400;-85
2021/04/09 07:45:56;33463.00;0.11;58.58;0.00;0.00;0.62;;;;;17.30;1.00;;;;;;2255003;61;1173;-85
2021/04/09 07:48:29;88377.00;0.29;153.51;0.00;0.00;0.62;;;;;17.80;1.00;;;;;;2255801;61;1146;-85
2021/04/09 07:50:56;288346.00;0.96;497.89;38269.00;0.13;66.89;;;;;18.10;1.00;;;;;;2255572;61;1156;-85
2021/04/09 07:53:41;139577.00;0.47;241.84;0.00;0.00;0.62;;;;;18.60;1.00;;;;;;2255299;61;1290;-85
2021/04/09 07:56:09;38847.00;0.13;67.89;0.00;0.00;0.62;;;;;18.40;1.00;;;;;;2255037;61;1166;-85
2021/04/09 07:58:37;129999.00;0.43;225.33;0.00;0.00;0.62;;;;;18.90;1.00;;;;;;2255855;61;1111;-85
2021/04/09 08:01:04;108340.00;0.36;187.97;0.00;0.00;0.62;;;;;18.90;1.00;;;;;;2255908;61;2025;-85
2021/04/09 08:03:34;65983.00;0.22;114.82;0.00;0.00;0.62;;;;;19.00;1.00;;;;;;2255542;61;1367;-85
2021/04/09 08:06:11;86499.00;0.29;150.26;0.00;0.00;0.62;;;;;19.10;1.00;;;;;;2256219;61;1162;-85
2021/04/09 08:08:39;235043.00;0.78;406.22;0.00;0.00;0.62;;;;;19.20;1.00;;;;;;2255657;61;1145;-85
2021/04/09 08:11:26;221026.00;0.74;382.11;41891.00;0.14;73.16;;;;;18.30;1.00;;;;;;2255376;61;1218;-86
2021/04/09 08:14:05;174136.00;0.58;301.39;0.00;0.00;0.62;;;;;17.60;1.00;;;;;;2255677;61;1789;-84
2021/04/09 08:16:34;194832.00;0.65;337.03;0.00;0.00;0.62;;;;;16.80;1.00;;;;;;2254866;61;1121;-85
2021/04/09 08:19:04;313746.00;1.05;541.55;22320.00;0.07;39.29;;;;;16.80;1.00;;;;;;2258097;61;2014;-85
2021/04/09 08:21:32;263164.00;0.88;454.59;13041.00;0.04;23.22;;;;;17.20;1.00;;;;;;2259132;61;1196;-85
2021/04/09 08:24:00;125060.00;0.42;216.81;0.00;0.00;0.62;;;;;18.00;1.00;;;;;;2255379;61;1349;-85
2021/04/09 08:26:28;128123.00;0.43;222.09;0.00;0.00;0.62;;;;;18.30;1.00;;;;;;2255704;61;1895;-85
2021/04/09 08:28:56;167604.00;0.56;290.14;0.00;0.00;0.62;;;;;17.80;1.00;;;;;;2255675;61;1244;-85
2021/04/09 08:31:24;189469.00;0.63;327.79;0.00;0.00;0.62;;;;;17.50;1.00;;;;;;2255765;61;1164;-85
2021/04/09 08:33:52;212201.00;0.71;366.92;0.00;0.00;0.62;;;;;17.30;1.00;;;;;;2255910;61;1375;-86
2021/04/09 08:36:19;232406.00;0.77;401.69;0.00;0.00;0.62;;;;;17.40;1.00;;;;;;2256302;61;1255;-86
2021/04/09 08:38:47;162041.00;0.54;280.56;0.00;0.00;0.62;;;;;17.30;1.00;;;;;;2256004;61;1138;-85
2021/04/09 08:41:15;197209.00;0.66;341.12;0.00;0.00;0.62;;;;;17.10;1.00;;;;;;2256198;61;1942;-85
2021/04/09 08:43:42;245367.00;0.82;423.98;10842.00;0.04;19.41;;;;;17.00;1.00;;;;;;2256508;61;1554;-85
2021/04/09 08:46:08;320208.00;1.07;552.66;35473.00;0.12;62.06;;;;;16.80;1.00;;;;;;2256113;61;1113;-85
2021/04/09 08:48:39;189890.00;0.63;328.52;0.00;0.00;0.62;;;;;16.70;1.00;;;;;;2255533;61;1225;-85
2021/04/09 08:51:07;139400.00;0.46;241.54;0.00;0.00;0.62;;;;;16.70;1.00;;;;;;2255620;61;1065;-84
2021/04/09 08:53:34;222494.00;0.74;384.63;0.00;0.00;0.62;;;;;16.60;1.00;;;;;;2255500;61;1372;-85
2021/04/09 08:56:02;123191.00;0.41;213.59;0.00;0.00;0.62;;;;;16.60;1.00;;;;;;2256034;61;1638;-85
2021/04/09 08:58:30;207604.00;0.69;359.01;0.00;0.00;0.62;;;;;17.10;1.00;;;;;;2255480;61;1188;-85
2021/04/09 09:01:10;277616.00;0.93;479.44;0.00;0.00;0.62;;;;;17.20;1.00;;;;;;2255215;61;2009;-85
2021/04/09 09:03:38;248292.00;0.83;429.01;0.00;0.00;0.62;;;;;17.00;1.00;;;;;;2256173;61;1551;-85
2021/04/09 09:06:06;101562.00;0.34;176.27;0.00;0.00;0.62;;;;;17.00;1.00;;;;;;2262431;61;1148;-85
2021/04/09 09:08:57;186301.00;0.62;322.34;0.00;0.00;0.62;;;;;16.70;1.00;;;;;;2260554;61;1179;-85
2021/04/09 09:11:48;333988.00;1.11;576.34;0.00;0.00;0.62;;;;;16.90;1.00;;;;;;2255171;61;1456;-85
2021/04/09 09:14:38;345315.00;1.15;595.81;69623.00;0.23;121.11;;;;;17.30;1.00;;;;;;2254795;61;1799;-85
2021/04/09 09:17:39;227298.00;0.76;392.90;33580.00;0.11;58.78;;;;;17.20;1.00;;;;;;2255584;61;1163;-85
2021/04/09 09:20:13;263995.00;0.88;456.02;0.00;0.00;0.62;;;;;16.90;1.00;;;;;;2257483;61;1918;-86
2021/04/09 09:23:03;531579.00;1.77;916.21;92629.00;0.31;160.85;;;;;17.80;1.00;;;;;;2250114;61;1423;-86
2021/04/09 09:25:41;234226.00;0.78;404.82;0.00;0.00;0.62;;;;;18.20;1.00;;;;;;2256174;61;1190;-86
2021/04/09 09:28:17;382479.00;1.27;659.69;80041.00;0.27;139.11;;;;;17.80;1.00;;;;;;2249260;61;1167;-86
2021/04/09 09:30:54;443536.00;1.48;764.66;124161.00;0.41;215.26;;;;;17.90;1.00;;;;;;2245886;61;1083;-85
2021/04/09 09:33:26;374552.00;1.25;646.06;117246.00;0.39;203.33;;;;;18.30;1.00;;;;;;2261155;61;1410;-85
2021/04/09 09:36:01;105660.00;0.35;183.34;0.00;0.00;0.62;;;;;18.10;1.00;;;;;;2262758;61;1160;-86
2021/04/09 09:38:55;150612.00;0.50;260.86;0.00;0.00;0.62;;;;;17.70;1.00;;;;;;2260669;61;1188;-85
2021/04/09 09:41:42;371202.00;1.24;640.30;92160.00;0.31;160.04;;;;;17.80;1.00;;;;;;2242266;61;1944;-86
2021/04/09 09:44:27;457554.00;1.53;788.78;83594.00;0.28;145.25;;;;;18.10;1.00;;;;;;2256490;61;1396;-86
2021/04/09 09:46:56;254814.00;0.85;440.23;0.00;0.00;0.62;;;;;18.50;1.00;;;;;;2256320;61;1242;-87
2021/04/09 09:49:24;314303.00;1.05;542.51;0.00;0.00;0.62;;;;;18.60;1.00;;;;;;2256080;61;1126;-86
2021/04/09 09:51:51;460638.00;1.54;794.08;83075.00;0.28;144.35;;;;;18.40;1.00;;;;;;2256886;61;1161;-86
2021/04/09 09:54:26;155923.00;0.52;270.01;0.00;0.00;0.62;;;;;18.60;1.00;;;;;;2262025;61;1225;-86
2021/04/09 09:56:53;152630.00;0.51;264.34;0.00;0.00;0.62;;;;;18.70;1.00;;;;;;2259721;61;1188;-86
2021/04/09 09:59:21;121792.00;0.41;211.17;0.00;0.00;0.62;;;;;18.60;1.00;;;;;;2248909;61;1928;-86
2021/04/09 10:01:52;130178.00;0.43;225.64;0.00;0.00;0.62;;;;;18.90;1.00;;;;;;2245467;61;1443;-85
2021/04/09 10:04:20;116989.00;0.39;202.89;0.00;0.00;0.62;;;;;19.10;1.00;;;;;;2248904;61;1161;-86
2021/04/09 10:06:51;113384.00;0.38;196.67;0.00;0.00;0.62;;;;;19.40;1.00;;;;;;2256480;61;1172;-86
2021/04/09 10:09:26;105241.00;0.35;182.62;0.00;0.00;0.62;;;;;19.40;1.00;;;;;;2256232;61;1181;-86
2021/04/09 10:11:52;161126.00;0.54;278.98;0.00;0.00;0.62;;;;;19.20;1.00;;;;;;2255950;61;1360;-86